Friday, January 19, 2018, 2:41 AM EST
Back to Local

KIDI, Indiana / Stewart Field

Location: Indiana, PA, United States Lat: 40.633
Local Time: 2:41 AM EST ( 7:41 GMT) Lon: -79.1
Time Zone: US/Eastern Elev: 1407 ft

Show me the last for .
Show Coded

Time T Td Feel RH Dir Speed Gust Alt SLP Vis Weather Sky Remarks
2018-01-19 02:15 23 12 8 62 250° 14 22 30.09 - 10 CLR None
2018-01-19 01:55 23 12 10 62 250° 16 - 30.09 - 10 CLR None
2018-01-19 01:35 23 12 10 62 240° 16 - 30.08 - 10 CLR None
2018-01-19 01:15 21 12 5 67 250° 14 22 30.09 - 10 CLR None
2018-01-19 00:55 21 10 8 62 250° 14 - 30.10 - 10 CLR None
2018-01-19 00:35 21 10 6 62 240° 13 20 30.10 - 10 CLR None
2018-01-19 00:15 21 12 9 67 250° 13 - 30.11 - 10 CLR None
2018-01-18 23:55 21 10 10 62 250° 10 - 30.11 - 10 CLR None
2018-01-18 23:35 21 10 10 62 240° 10 - 30.12 - 10 CLR None
2018-01-18 23:15 21 10 9 62 240° 12 - 30.13 - 10 CLR None
2018-01-18 22:55 21 10 6 62 240° 10 21 30.13 - 10 CLR None
2018-01-18 22:35 23 10 11 57 240° 13 - 30.13 - 10 CLR None
2018-01-18 22:15 23 10 10 57 250° 15 - 30.13 - 10 CLR None
2018-01-18 21:55 23 10 10 57 240° 15 - 30.14 - 10 CLR None
2018-01-18 21:35 23 10 9 57 240° 12 18 30.14 - 10 CLR None
2018-01-18 21:15 23 10 12 57 250° 12 - 30.15 - 10 CLR None
2018-01-18 20:55 23 10 12 57 250° 10 - 30.15 - 10 CLR None
2018-01-18 20:35 23 10 12 57 250° 12 - 30.15 - 10 CLR None
2018-01-18 20:15 23 10 12 57 250° 10 - 30.15 - 10 CLR None
2018-01-18 19:55 23 10 12 57 250° 12 - 30.14 - 10 CLR None
2018-01-18 19:35 23 10 12 57 260° 10 - 30.14 - 10 CLR None
2018-01-18 19:15 23 10 12 57 260° 12 - 30.14 - 10 CLR None
2018-01-18 18:55 23 10 12 57 260° 10 - 30.13 - 10 CLR None
2018-01-18 18:35 23 10 12 57 260° 10 - 30.12 - 10 CLR None
2018-01-18 18:15 23 10 12 57 260° 10 - 30.12 - 10 CLR None
2018-01-18 17:55 25 10 11 53 260° 12 20 30.12 - 10 CLR None
2018-01-18 17:35 25 10 11 53 260° 12 17 30.11 - 10 CLR None
2018-01-18 17:15 25 10 12 53 250° 10 16 30.11 - 9 CLR None
2018-01-18 16:55 25 10 12 53 270° 15 - 30.12 - 10 CLR None
2018-01-18 16:35 25 12 10 58 270° 15 22 30.12 - 10 CLR None
2018-01-18 16:15 27 12 15 53 270° 15 - 30.12 - 10 CLR None
2018-01-18 15:55 25 12 13 58 260° 14 - 30.11 - 10 CLR None
2018-01-18 15:35 25 12 10 58 260° 16 23 30.11 - 10 CLR None
2018-01-18 15:15 25 10 10 53 260° 14 22 30.11 - 10 CLR None
2018-01-18 14:55 25 12 9 58 260° 15 25 30.12 - 10 CLR None
2018-01-18 14:35 25 10 10 53 270° 16 23 30.12 - 10 CLR None
2018-01-18 14:15 23 10 7 57 250° 15 25 30.12 - 10 CLR None
2018-01-18 13:55 23 10 7 57 270° 16 23 30.12 - 10 CLR None
2018-01-18 13:35 23 10 10 57 260° 16 - 30.13 - 10 CLR None
2018-01-18 13:15 21 10 4 62 260° 16 25 30.14 - 10 CLR None
2018-01-18 12:55 21 9 5 57 260° 15 23 30.14 - 10 CLR None
2018-01-18 12:35 19 9 4 62 260° 20 - 30.15 - 9 CLR None
2018-01-18 12:15 19 9 2 62 270° 14 24 30.16 - 10 CLR None
2018-01-18 11:55 18 9 -1 67 270° 16 25 30.18 - 9 CLR None
2018-01-18 11:35 18 9 0 67 270° 17 24 30.19 - 10 CLR None
2018-01-18 11:15 16 9 -3 72 270° 20 26 30.21 - 9 CLR None
2018-01-18 10:55 16 9 -2 72 260° 16 23 30.21 - 8 CLR None
2018-01-18 10:35 16 7 -4 66 260° 20 29 30.21 - 7 CLR None
2018-01-18 10:15 14 7 -3 72 260° 17 - 30.22 - 9 CLR None
2018-01-18 09:55 14 7 -1 72 260° 15 - 30.22 - 10 CLR None
2018-01-18 09:35 12 7 -7 78 260° 12 22 30.22 - 9 CLR None
2018-01-18 09:15 12 7 -8 78 260° 17 24 30.21 - 7 CLR None
2018-01-18 08:55 12 7 -8 78 260° 16 25 30.21 - 8 CLR None
2018-01-18 08:35 10 7 -5 84 260° 14 - 30.21 - 10 CLR None
2018-01-18 08:15 9 7 -11 92 250° 13 21 30.20 - 10 CLR None
2018-01-18 07:55 9 5 -7 84 240° 13 - 30.20 - 10 CLR None
2018-01-18 07:35 9 5 -7 84 250° 13 - 30.21 - 9 CLR None
2018-01-18 07:15 9 5 -7 84 250° 13 - 30.21 - 10 FEW014 None
2018-01-18 06:55 7 5 -9 92 250° 13 - 30.21 - 10 CLR None
2018-01-18 06:35 9 5 -7 84 240° 13 - 30.21 - 10 FEW013 None
2018-01-18 06:15 9 5 -8 84 240° 14 - 30.22 - 10 SCT012 None
2018-01-18 05:55 9 5 -11 84 240° 14 21 30.23 - 10 BKN011 None
2018-01-18 05:35 9 5 -11 84 240° 15 21 30.23 - 10 BKN011 None
2018-01-18 05:15 9 5 -11 84 240° 14 21 30.24 - 10 OVC010 None
2018-01-18 04:55 9 5 -11 84 250° 14 21 30.24 - 10 OVC011 None
2018-01-18 04:35 7 5 -9 92 250° 12 - 30.25 - 10 OVC011 None
2018-01-18 04:15 7 5 -13 92 250° 14 20 30.26 - 10 OVC011 None
2018-01-18 03:55 7 5 -9 92 250° 13 - 30.26 - 10 OVC011 None
2018-01-18 03:35 7 5 -12 92 250° 13 18 30.26 - 10 OVC011 None
2018-01-18 03:15 7 5 -13 92 240° 15 21 30.27 - 10 OVC011 None
2018-01-18 02:55 7 5 -11 92 240° 15 - 30.27 - 10 OVC011 None

Support USWX by starting your Amazon purchase here.